Terminal Aerodrome Forecast
Issued by NWS Medford, OR

Home | Current Version | Previous Version | Text Only | Print | Product List | Glossary On
Versions: 1 2 3 4 5 6 7 8 9 10 11 12 13 14 15
000
FTUS46 KMFR 171800 CCA
TAFMFR
TAF COR
KMFR 171801Z 1718/1818 VRB03KT 6SM HZ SCT140 BKN200
     FM172300 30007KT P6SM FEW080 BKN120 BKN200
     FM180400 VRB03KT P6SM VCSH SCT090 BKN120 OVC140
     FM181500 VRB03KT P6SM -SHRA BKN070 BKN090 OVC120=

USA.gov is the U.S. government's official web portal to all federal, state and local government web resources and services.